createdAt,value
2023-06-28T00:04:44.528Z,5.50
2023-06-28T00:09:46.311Z,10.65
2023-06-28T00:14:48.177Z,6.35
2023-06-28T00:19:50.038Z,6.72
2023-06-28T00:24:52.050Z,3.78
2023-06-28T00:29:54.911Z,4.57
2023-06-28T00:34:57.228Z,3.70
2023-06-28T00:39:59.739Z,5.20
2023-06-28T00:45:01.640Z,7.28
2023-06-28T00:50:04.516Z,3.58
2023-06-28T00:55:06.870Z,6.95
2023-06-28T01:00:10.850Z,6.63
2023-06-28T01:05:14.902Z,5.78
2023-06-28T01:10:18.572Z,4.15
2023-06-28T01:15:21.724Z,4.55
2023-06-28T01:20:23.725Z,5.53
2023-06-28T01:25:25.895Z,5.97
2023-06-28T01:30:27.952Z,5.53
2023-06-28T01:35:32.682Z,4.55
2023-06-28T01:40:37.432Z,6.32
2023-06-28T01:45:39.466Z,5.72
2023-06-28T01:50:42.301Z,6.18
2023-06-28T01:55:44.349Z,4.15
2023-06-28T02:00:46.200Z,4.10
2023-06-28T02:05:48.045Z,5.10
2023-06-28T02:10:49.875Z,4.38
2023-06-28T02:15:51.975Z,11.02
2023-06-28T02:20:53.812Z,5.50
2023-06-28T02:25:57.335Z,5.60
2023-06-28T02:31:01.374Z,7.05
2023-06-28T02:36:03.271Z,5.03
2023-06-28T02:41:05.105Z,7.85
2023-06-28T02:46:07.232Z,3.67
2023-06-28T02:51:09.034Z,5.72
2023-06-28T02:56:14.031Z,6.35
2023-06-28T03:01:16.065Z,8.40
2023-06-28T03:06:18.143Z,7.38
2023-06-28T03:11:20.012Z,4.38
2023-06-28T03:16:23.642Z,7.57
2023-06-28T03:21:25.454Z,7.90
2023-06-28T03:26:27.447Z,5.07
2023-06-28T03:31:29.265Z,4.85
2023-06-28T03:36:33.015Z,8.27
2023-06-28T03:41:34.822Z,5.03
2023-06-28T03:46:36.826Z,6.47
2023-06-28T03:51:38.740Z,8.75
2023-06-28T03:56:40.789Z,7.57
2023-06-28T04:01:42.606Z,6.40
2023-06-28T04:06:44.595Z,4.18
2023-06-28T04:11:46.416Z,7.35
2023-06-28T04:16:48.210Z,3.50
2023-06-28T04:21:50.115Z,7.03
2023-06-28T04:26:51.971Z,5.53
2023-06-28T04:31:54.050Z,5.80
2023-06-28T04:37:14.952Z,4.88
2023-06-28T04:42:17.690Z,5.05
2023-06-28T04:47:19.676Z,9.43
2023-06-28T04:52:24.133Z,7.07
2023-06-28T04:57:25.980Z,5.28
2023-06-28T05:02:28.917Z,9.18
2023-06-28T05:07:30.835Z,9.25
2023-06-28T05:12:32.837Z,6.32
2023-06-28T05:17:34.765Z,11.73
2023-06-28T05:22:42.228Z,10.30
2023-06-28T05:27:44.102Z,8.77
2023-06-28T05:32:46.144Z,6.63
2023-06-28T05:37:48.053Z,6.15
2023-06-28T05:42:49.889Z,9.02
2023-06-28T05:47:52.331Z,8.23
2023-06-28T05:52:54.261Z,6.85
2023-06-28T05:57:56.064Z,8.32
2023-06-28T06:02:57.937Z,6.35
2023-06-28T06:07:59.850Z,5.78
2023-06-28T06:13:01.655Z,4.43
2023-06-28T06:18:03.550Z,11.15
2023-06-28T06:23:05.442Z,3.55
2023-06-28T06:28:07.320Z,9.23
2023-06-28T06:33:09.277Z,8.73
2023-06-28T06:38:11.318Z,7.80
2023-06-28T06:43:14.100Z,12.27
2023-06-28T06:48:15.922Z,10.85
2023-06-28T06:53:18.237Z,9.93
2023-06-28T06:58:20.091Z,9.05
2023-06-28T07:03:21.973Z,12.20
2023-06-28T07:08:23.787Z,7.82
2023-06-28T07:13:25.608Z,7.90
2023-06-28T07:18:27.621Z,7.93
2023-06-28T07:23:29.584Z,7.78
2023-06-28T07:28:31.468Z,6.15
2023-06-28T07:33:33.459Z,10.32
2023-06-28T07:38:35.802Z,11.65
2023-06-28T07:43:37.911Z,9.80
2023-06-28T07:48:39.789Z,11.82
2023-06-28T07:53:43.485Z,4.70
2023-06-28T07:58:45.296Z,9.70
2023-06-28T08:03:47.355Z,6.15
2023-06-28T08:08:49.332Z,9.73
2023-06-28T08:13:51.943Z,6.57
2023-06-28T08:18:53.797Z,11.70
2023-06-28T08:23:55.714Z,7.25
2023-06-28T08:29:00.544Z,9.23
2023-06-28T08:34:04.083Z,8.27
2023-06-28T08:39:05.907Z,10.43
2023-06-28T08:44:12.705Z,5.72
2023-06-28T08:49:15.733Z,7.00
2023-06-28T08:54:18.050Z,6.97
2023-06-28T08:59:21.484Z,8.68
2023-06-28T09:04:24.718Z,10.90
2023-06-28T09:09:29.096Z,2.88
2023-06-28T09:14:32.205Z,5.95
2023-06-28T09:19:34.149Z,4.65
2023-06-28T09:24:36.817Z,9.32
2023-06-28T09:29:38.764Z,9.07
2023-06-28T09:34:42.322Z,8.90
2023-06-28T09:39:45.789Z,10.65
2023-06-28T09:44:56.569Z,13.75
2023-06-28T09:50:01.607Z,12.25
2023-06-28T09:55:05.087Z,6.25
2023-06-28T10:00:08.360Z,8.40
2023-06-28T10:05:11.383Z,7.00
2023-06-28T10:10:14.098Z,5.53
2023-06-28T10:15:24.498Z,6.65
2023-06-28T10:20:26.400Z,6.95
2023-06-28T10:25:29.133Z,6.85
2023-06-28T10:30:31.977Z,11.48
2023-06-28T10:35:34.522Z,8.65
2023-06-28T10:40:36.587Z,8.57
2023-06-28T10:45:39.281Z,10.15
2023-06-28T10:50:43.048Z,12.05
2023-06-28T10:56:05.289Z,10.32
2023-06-28T11:01:31.714Z,9.77
2023-06-28T11:06:33.650Z,12.55
2023-06-28T11:11:36.631Z,11.18
2023-06-28T11:16:42.727Z,9.65
2023-06-28T11:21:49.663Z,10.85
2023-06-28T11:26:51.579Z,12.60
2023-06-28T11:31:56.996Z,18.48
2023-06-28T11:36:59.064Z,11.70
2023-06-28T11:42:04.254Z,13.93
2023-06-28T11:47:08.172Z,9.93
2023-06-28T11:52:11.011Z,13.75
2023-06-28T11:57:13.377Z,13.02
2023-06-28T12:02:15.342Z,14.20
2023-06-28T12:07:22.498Z,11.82
2023-06-28T12:12:34.287Z,11.65
2023-06-28T12:17:43.358Z,9.77
2023-06-28T12:22:47.312Z,8.70
2023-06-28T12:28:03.758Z,16.98
2023-06-28T12:33:08.905Z,15.68
2023-06-28T12:38:21.039Z,13.50
2023-06-28T12:43:26.894Z,11.48
2023-06-28T12:48:29.557Z,12.20
2023-06-28T12:53:31.575Z,14.48
2023-06-28T12:58:33.479Z,18.75
2023-06-28T13:03:36.436Z,14.75
2023-06-28T13:08:38.334Z,15.25
2023-06-28T13:13:40.184Z,19.52
2023-06-28T13:18:42.033Z,14.57
2023-06-28T13:23:44.051Z,16.08
2023-06-28T13:28:45.844Z,17.42
2023-06-28T13:33:47.818Z,12.75
2023-06-28T13:38:50.744Z,19.42
2023-06-28T13:43:52.657Z,16.27
2023-06-28T13:48:54.634Z,15.80
2023-06-28T13:53:56.575Z,15.70
2023-06-28T13:58:58.441Z,15.38
2023-06-28T14:04:00.362Z,15.35
2023-06-28T14:09:02.336Z,14.70
2023-06-28T14:14:04.216Z,16.33
2023-06-28T14:19:06.329Z,11.27
2023-06-28T14:24:09.034Z,16.95
2023-06-28T14:29:10.854Z,17.98
2023-06-28T14:34:12.687Z,19.33
2023-06-28T14:39:14.760Z,16.33
2023-06-28T14:44:16.645Z,15.80
2023-06-28T14:49:19.415Z,18.70
2023-06-28T14:54:21.479Z,15.23
2023-06-28T14:59:24.999Z,15.18
2023-06-28T15:04:28.961Z,18.45
2023-06-28T15:09:32.685Z,17.77
2023-06-28T15:14:37.900Z,14.90
2023-06-28T15:19:39.783Z,15.50
2023-06-28T15:24:41.634Z,18.20
2023-06-28T15:29:43.465Z,18.27
2023-06-28T15:34:45.309Z,24.65
2023-06-28T15:39:47.143Z,20.60
2023-06-28T15:44:48.952Z,18.67
2023-06-28T15:49:50.797Z,20.48
2023-06-28T15:54:52.875Z,19.90
2023-06-28T15:59:55.412Z,20.00
2023-06-28T16:04:57.620Z,20.27
2023-06-28T16:09:59.433Z,22.00
2023-06-28T16:15:01.360Z,16.52
2023-06-28T16:20:04.764Z,16.65
2023-06-28T16:25:07.622Z,21.42
2023-06-28T16:30:09.834Z,16.55
2023-06-28T16:35:11.731Z,19.38
2023-06-28T16:40:15.169Z,23.75
2023-06-28T16:45:17.046Z,16.92
2023-06-28T16:50:18.945Z,18.77
2023-06-28T16:55:21.488Z,19.13
2023-06-28T17:00:23.371Z,16.40
2023-06-28T17:05:25.217Z,15.52
2023-06-28T17:10:28.697Z,13.55
2023-06-28T17:15:30.573Z,17.55
2023-06-28T17:20:32.382Z,19.40
2023-06-28T17:25:35.256Z,15.10
2023-06-28T17:30:37.089Z,21.92
2023-06-28T17:35:38.897Z,15.18
2023-06-28T17:40:42.470Z,16.02
2023-06-28T17:45:45.258Z,17.08
2023-06-28T17:50:47.285Z,15.93
2023-06-28T17:55:49.149Z,23.80
2023-06-28T18:00:51.033Z,17.52
2023-06-28T18:05:52.889Z,14.73
2023-06-28T18:10:54.798Z,21.90
2023-06-28T18:15:56.597Z,17.52
2023-06-28T18:21:00.235Z,18.90
2023-06-28T18:26:04.160Z,18.50
2023-06-28T18:31:06.024Z,17.92
2023-06-28T18:36:10.261Z,18.38
2023-06-28T18:41:12.312Z,16.00
2023-06-28T18:46:14.191Z,19.48
2023-06-28T18:51:16.162Z,23.75
2023-06-28T18:56:17.983Z,23.27
2023-06-28T19:01:19.890Z,16.60
2023-06-28T19:06:22.201Z,17.52
2023-06-28T19:11:24.874Z,25.23
2023-06-28T19:16:26.884Z,18.58
2023-06-28T19:21:28.723Z,18.60
2023-06-28T19:26:30.533Z,19.45
2023-06-28T19:31:33.920Z,17.10
2023-06-28T19:36:37.564Z,16.40
2023-06-28T19:41:39.466Z,19.40
2023-06-28T19:46:41.396Z,17.40
2023-06-28T19:51:43.187Z,19.40
2023-06-28T19:56:45.128Z,19.52
2023-06-28T20:01:46.962Z,18.25
2023-06-28T20:06:49.051Z,22.10
2023-06-28T20:11:51.027Z,20.40
2023-06-28T20:16:53.702Z,16.83
2023-06-28T20:21:55.878Z,16.25
2023-06-28T20:26:57.753Z,21.75
2023-06-28T20:31:59.630Z,19.00
2023-06-28T20:37:01.497Z,21.35
2023-06-28T20:42:03.472Z,19.02
2023-06-28T20:47:07.421Z,15.70
2023-06-28T20:52:09.409Z,22.52
2023-06-28T20:57:11.501Z,16.05
2023-06-28T21:02:13.302Z,18.30
2023-06-28T21:07:15.178Z,19.50
2023-06-28T21:12:17.248Z,24.40
2023-06-28T21:17:19.045Z,17.15
2023-06-28T21:22:21.777Z,25.27
2023-06-28T21:27:23.598Z,20.10
2023-06-28T21:32:25.525Z,19.98
2023-06-28T21:37:27.378Z,27.95
2023-06-28T21:42:29.333Z,20.45
2023-06-28T21:47:31.220Z,20.35
2023-06-28T21:52:33.208Z,25.38
2023-06-28T21:57:35.068Z,17.98
2023-06-28T22:02:36.935Z,24.77
2023-06-28T22:07:38.879Z,21.95
2023-06-28T22:12:41.129Z,20.38
2023-06-28T22:17:43.179Z,16.55
2023-06-28T22:22:45.237Z,27.55
2023-06-28T22:27:48.301Z,18.13
2023-06-28T22:32:50.437Z,28.20
2023-06-28T22:37:52.460Z,20.27
2023-06-28T22:42:54.285Z,20.52
2023-06-28T22:47:56.521Z,18.85
2023-06-28T22:52:58.444Z,21.08
2023-06-28T22:58:00.233Z,22.83
2023-06-28T23:03:02.065Z,23.63
2023-06-28T23:08:04.636Z,21.05
2023-06-28T23:13:11.770Z,21.08
2023-06-28T23:18:20.285Z,21.13
2023-06-28T23:23:23.466Z,23.35
2023-06-28T23:28:30.262Z,19.48
2023-06-28T23:33:32.234Z,21.58
2023-06-28T23:38:34.193Z,23.88
2023-06-28T23:43:36.246Z,19.45
2023-06-28T23:48:38.628Z,18.08
2023-06-28T23:53:40.831Z,19.35
2023-06-28T23:58:42.679Z,21.00
